Time;durP1;ratioP1;P1;durP2;ratioP2;P2;SDS_P1;SDS_P2;PMS_P1;PMS_P2;Temp;Humidity;BMP_temperature;BMP_pressure;BME280_temperature;BME280_humidity;BME280_pressure;Samples;Min_cycle;Max_cycle;Signal;HPM_P1;HPM_P2
2021/08/15 00:01:41;;;;;;;10.75;6.28;;;22.40;99.90;;;;;;5074994;28;20051;-88
2021/08/15 00:04:06;;;;;;;8.63;6.43;;;22.30;99.90;;;;;;5075205;28;20062;-88
2021/08/15 00:06:32;;;;;;;11.68;6.30;;;22.00;99.90;;;;;;5075594;28;20027;-88
2021/08/15 00:08:58;;;;;;;11.95;6.15;;;21.80;99.90;;;;;;5075434;28;20475;-88
2021/08/15 00:11:24;;;;;;;8.00;5.88;;;21.80;99.90;;;;;;5093436;28;20058;-88
2021/08/15 00:13:50;;;;;;;12.35;6.15;;;21.80;99.90;;;;;;5075319;28;20031;-88
2021/08/15 00:16:16;;;;;;;12.23;5.53;;;21.80;99.90;;;;;;5075333;28;20024;-88
2021/08/15 00:18:41;;;;;;;11.27;6.38;;;22.00;99.90;;;;;;5093438;28;20028;-88
2021/08/15 00:21:07;;;;;;;14.23;6.35;;;22.10;99.90;;;;;;5075264;28;20020;-88
2021/08/15 00:23:33;;;;;;;12.82;6.32;;;22.10;99.90;;;;;;5075171;28;20024;-88
2021/08/15 00:25:58;;;;;;;8.48;5.88;;;22.30;99.90;;;;;;5075242;28;20027;-88
2021/08/15 00:28:24;;;;;;;9.27;5.75;;;22.40;99.90;;;;;;5075171;28;20016;-88
2021/08/15 00:30:50;;;;;;;13.07;6.85;;;22.10;99.90;;;;;;5075209;28;20028;-88
2021/08/15 00:33:15;;;;;;;12.50;6.03;;;22.20;99.90;;;;;;5075170;28;20028;-88
2021/08/15 00:35:43;;;;;;;10.18;6.38;;;22.10;99.90;;;;;;5075449;28;20510;-88
2021/08/15 00:38:08;;;;;;;11.02;6.68;;;22.10;99.90;;;;;;5074971;28;20065;-87
2021/08/15 00:40:34;;;;;;;9.88;6.10;;;21.70;99.90;;;;;;5075145;28;20028;-88
2021/08/15 00:43:00;;;;;;;9.55;6.10;;;21.60;99.90;;;;;;5093061;28;20502;-88
2021/08/15 00:45:26;;;;;;;12.48;6.43;;;21.80;99.90;;;;;;5075012;28;20031;-88
2021/08/15 00:47:52;;;;;;;9.43;6.53;;;21.50;99.90;;;;;;5075024;28;20024;-88
2021/08/15 00:50:19;;;;;;;9.13;6.15;;;21.40;99.90;;;;;;5075006;28;20490;-88
2021/08/15 00:52:44;;;;;;;10.85;6.22;;;21.30;99.90;;;;;;5074963;28;20451;-88
2021/08/15 00:55:12;;;;;;;7.45;5.75;;;21.40;99.90;;;;;;5074936;28;20138;-88
2021/08/15 00:57:43;;;;;;;11.40;5.95;;;21.50;99.90;;;;;;5074922;28;20020;-88
2021/08/15 01:00:11;;;;;;;7.88;5.70;;;21.70;99.90;;;;;;5074924;28;20032;-88
2021/08/15 01:02:39;;;;;;;8.40;6.00;;;21.80;99.90;;;;;;5074891;28;20028;-88
2021/08/15 01:05:05;;;;;;;11.45;5.93;;;21.90;99.90;;;;;;5074824;28;20040;-88
2021/08/15 01:07:31;;;;;;;11.02;6.82;;;21.90;99.90;;;;;;5074731;28;20495;-88
2021/08/15 01:09:57;;;;;;;8.25;6.18;;;21.90;99.90;;;;;;5074918;28;20084;-88
2021/08/15 01:12:26;;;;;;;17.10;6.85;;;21.80;99.90;;;;;;5075015;28;20472;-88
2021/08/15 01:14:57;;;;;;;10.68;7.07;;;21.70;99.90;;;;;;5082576;28;20092;-88
2021/08/15 01:17:23;;;;;;;15.55;6.55;;;21.60;99.90;;;;;;5083491;28;20096;-88
2021/08/15 01:19:56;;;;;;;8.75;5.82;;;21.60;99.90;;;;;;5078838;28;20027;-88
2021/08/15 01:22:26;;;;;;;12.98;6.25;;;21.70;99.90;;;;;;5078888;28;20035;-88
2021/08/15 01:24:58;;;;;;;12.95;6.15;;;21.80;99.90;;;;;;5078196;28;20482;-88
2021/08/15 01:27:25;;;;;;;13.93;6.80;;;21.70;99.90;;;;;;5078398;28;20028;-88
2021/08/15 01:29:51;;;;;;;14.55;6.70;;;21.60;99.90;;;;;;5078196;28;20028;-88
2021/08/15 01:32:17;;;;;;;8.93;6.25;;;21.50;99.90;;;;;;5078242;28;20064;-88
2021/08/15 01:34:43;;;;;;;15.10;6.70;;;21.50;99.90;;;;;;5078181;28;20380;-88
2021/08/15 01:37:11;;;;;;;19.88;6.22;;;21.60;99.90;;;;;;5077989;28;20146;-88
2021/08/15 01:39:41;;;;;;;9.68;6.30;;;21.30;99.90;;;;;;5078056;28;20023;-88
2021/08/15 01:42:07;;;;;;;9.50;6.20;;;21.20;99.90;;;;;;5077996;28;20434;-88
2021/08/15 01:44:33;;;;;;;10.02;6.35;;;21.40;99.90;;;;;;5077895;28;20027;-88
2021/08/15 01:46:58;;;;;;;10.32;6.22;;;21.60;99.90;;;;;;5078173;28;20017;-88
2021/08/15 01:49:24;;;;;;;11.32;6.00;;;21.60;99.90;;;;;;5077934;28;20483;-88
2021/08/15 01:51:50;;;;;;;8.50;6.18;;;21.50;99.90;;;;;;5077667;28;20051;-88
2021/08/15 01:54:16;;;;;;;9.88;6.35;;;21.40;99.90;;;;;;5077844;28;20028;-88
2021/08/15 01:56:42;;;;;;;11.23;6.57;;;21.50;99.90;;;;;;5078520;28;20502;-88
2021/08/15 01:59:07;;;;;;;10.10;6.53;;;21.50;99.90;;;;;;5078639;28;20031;-87
2021/08/15 02:01:33;;;;;;;11.55;6.78;;;21.40;99.90;;;;;;5096842;28;20026;-87
2021/08/15 02:03:59;;;;;;;8.70;5.78;;;21.40;99.90;;;;;;5078359;28;20081;-88
2021/08/15 02:06:24;;;;;;;10.57;6.00;;;21.50;99.90;;;;;;5096641;28;20432;-88
2021/08/15 02:08:51;;;;;;;8.43;5.60;;;21.50;99.90;;;;;;5078314;28;20510;-88
2021/08/15 02:11:18;;;;;;;9.15;5.65;;;21.60;99.90;;;;;;5096625;28;20414;-87
2021/08/15 02:13:45;;;;;;;10.05;5.78;;;21.50;99.90;;;;;;5095968;28;20049;-87
2021/08/15 02:16:11;;;;;;;11.32;6.75;;;21.70;99.90;;;;;;5096370;28;20024;-88
2021/08/15 02:18:37;;;;;;;14.00;6.22;;;21.50;99.90;;;;;;5078048;28;20023;-88
2021/08/15 02:21:03;;;;;;;10.27;6.55;;;21.20;99.90;;;;;;5096305;28;20383;-88
2021/08/15 02:23:29;;;;;;;9.95;6.60;;;21.20;99.90;;;;;;5078099;28;20031;-88
2021/08/15 02:25:55;;;;;;;13.85;6.82;;;21.00;99.90;;;;;;5077229;28;20020;-88
2021/08/15 02:28:20;;;;;;;10.80;6.28;;;21.20;99.90;;;;;;5078478;28;20050;-87
2021/08/15 02:30:46;;;;;;;9.63;6.45;;;21.20;99.90;;;;;;5077724;28;20447;-88
2021/08/15 02:33:12;;;;;;;9.93;5.70;;;21.30;99.90;;;;;;5078199;28;20028;-89
2021/08/15 02:35:37;;;;;;;9.02;6.15;;;21.20;99.90;;;;;;5096102;28;20031;-88
2021/08/15 02:38:04;;;;;;;11.85;6.18;;;21.30;99.90;;;;;;5077623;28;20020;-88
2021/08/15 02:40:29;;;;;;;13.18;6.47;;;21.20;99.90;;;;;;5077555;28;20087;-88
2021/08/15 02:42:56;;;;;;;10.77;6.10;;;20.90;99.90;;;;;;5077539;28;20119;-88
2021/08/15 02:45:23;;;;;;;8.60;6.03;;;21.00;99.90;;;;;;5077270;28;20031;-88
2021/08/15 02:47:49;;;;;;;7.55;5.50;;;21.20;99.90;;;;;;5077624;28;20024;-88
2021/08/15 02:50:16;;;;;;;9.90;6.07;;;21.30;99.90;;;;;;5095497;28;20441;-88
2021/08/15 02:52:42;;;;;;;9.02;6.25;;;21.20;99.90;;;;;;5056112;28;20386;-87
2021/08/15 02:55:09;;;;;;;14.52;6.25;;;21.20;99.90;;;;;;5054255;28;20047;-88
2021/08/15 02:57:35;;;;;;;11.77;6.60;;;21.10;99.90;;;;;;5053982;28;20032;-88
2021/08/15 03:00:01;;;;;;;10.50;6.40;;;21.20;99.90;;;;;;5053848;28;20476;-87
2021/08/15 03:02:27;;;;;;;9.73;6.72;;;21.00;99.90;;;;;;5054979;28;20029;-88
2021/08/15 03:04:53;;;;;;;17.27;7.10;;;20.90;99.90;;;;;;5053679;28;20028;-87
2021/08/15 03:07:19;;;;;;;11.13;6.50;;;20.80;99.90;;;;;;5053573;28;20049;-87
2021/08/15 03:09:45;;;;;;;10.32;6.13;;;20.80;99.90;;;;;;5053781;28;20018;-89
2021/08/15 03:12:13;;;;;;;13.75;6.50;;;20.70;99.90;;;;;;5057080;28;20113;-89
2021/08/15 03:14:38;;;;;;;10.23;7.13;;;20.60;99.90;;;;;;5054010;28;20083;-88
2021/08/15 03:17:05;;;;;;;16.50;7.07;;;20.60;99.90;;;;;;5053908;28;20033;-89
2021/08/15 03:19:31;;;;;;;14.80;7.35;;;20.50;99.90;;;;;;5053492;28;20029;-88
2021/08/15 03:21:57;;;;;;;11.75;7.10;;;20.30;99.90;;;;;;5055130;28;20071;-88
2021/08/15 03:24:22;;;;;;;18.60;6.95;;;20.40;99.90;;;;;;5056887;28;20021;-88
2021/08/15 03:26:48;;;;;;;10.73;7.10;;;20.40;99.90;;;;;;5054928;28;20162;-88
2021/08/15 03:29:15;;;;;;;15.68;7.47;;;20.50;99.90;;;;;;5053624;28;20025;-88
2021/08/15 03:31:42;;;;;;;11.35;6.75;;;20.70;99.90;;;;;;5055139;28;20063;-88
2021/08/15 03:34:08;;;;;;;11.25;6.88;;;20.80;99.90;;;;;;5053513;28;20028;-89
2021/08/15 03:36:34;;;;;;;15.65;7.18;;;20.60;99.90;;;;;;5052393;28;20428;-88
2021/08/15 03:39:00;;;;;;;11.50;7.90;;;20.50;99.90;;;;;;5054450;28;20060;-88
2021/08/15 03:41:25;;;;;;;12.73;6.68;;;20.50;99.90;;;;;;5053600;28;20028;-88
2021/08/15 03:43:51;;;;;;;13.60;7.22;;;20.50;99.90;;;;;;5055051;28;20451;-88
2021/08/15 03:46:17;;;;;;;14.45;7.40;;;20.50;99.90;;;;;;5053608;28;20071;-88
2021/08/15 03:48:43;;;;;;;13.23;7.22;;;20.60;99.90;;;;;;5053328;28;20025;-88
2021/08/15 03:51:08;;;;;;;10.98;6.63;;;20.40;99.90;;;;;;5053284;28;20045;-88
2021/08/15 03:53:34;;;;;;;12.05;6.78;;;20.40;99.90;;;;;;5052906;28;20049;-89
2021/08/15 03:56:00;;;;;;;10.70;6.88;;;20.40;99.90;;;;;;5053765;28;20439;-88
2021/08/15 03:58:25;;;;;;;15.15;7.18;;;20.50;99.90;;;;;;5053168;28;20024;-88
2021/08/15 04:00:51;;;;;;;14.65;6.53;;;20.70;99.90;;;;;;5053656;28;20054;-89
2021/08/15 04:03:17;;;;;;;11.65;7.15;;;20.60;99.90;;;;;;5053410;28;20021;-88
2021/08/15 04:05:42;;;;;;;11.38;6.93;;;20.40;99.90;;;;;;5054306;28;20025;-88
2021/08/15 04:08:09;;;;;;;10.20;6.97;;;20.20;99.90;;;;;;5053241;28;20103;-88
2021/08/15 04:10:35;;;;;;;10.50;6.53;;;20.40;99.90;;;;;;5053873;28;20053;-89
2021/08/15 04:13:01;;;;;;;11.27;6.93;;;20.60;99.90;;;;;;5053138;28;20116;-89
2021/08/15 04:15:27;;;;;;;11.18;7.13;;;20.60;99.90;;;;;;5053153;28;20056;-88
2021/08/15 04:17:53;;;;;;;10.55;7.03;;;20.30;99.90;;;;;;5053120;28;20029;-88
2021/08/15 04:20:21;;;;;;;13.05;7.13;;;20.10;99.90;;;;;;5053077;28;20048;-88
2021/08/15 04:22:47;;;;;;;9.85;7.22;;;20.10;99.90;;;;;;5053375;28;20021;-88
2021/08/15 04:25:13;;;;;;;14.50;7.00;;;20.10;99.90;;;;;;5052869;28;20503;-88
2021/08/15 04:27:39;;;;;;;10.20;6.85;;;20.20;99.90;;;;;;5054027;28;20017;-89
2021/08/15 04:30:07;;;;;;;10.45;6.50;;;20.20;99.90;;;;;;5052948;28;20530;-89
2021/08/15 04:32:32;;;;;;;9.82;6.88;;;20.20;99.90;;;;;;5052805;28;20052;-88
2021/08/15 04:34:58;;;;;;;10.05;7.20;;;20.20;99.90;;;;;;5052943;28;20100;-88
2021/08/15 04:37:24;;;;;;;9.82;6.60;;;20.10;99.90;;;;;;5052710;28;20078;-88
2021/08/15 04:39:49;;;;;;;10.80;7.00;;;20.10;99.90;;;;;;5054073;28;20469;-88
2021/08/15 04:42:15;;;;;;;10.63;6.88;;;20.20;99.90;;;;;;5052841;28;20032;-88
2021/08/15 04:44:41;;;;;;;9.77;7.25;;;20.20;99.90;;;;;;5053544;28;20025;-88
2021/08/15 04:47:07;;;;;;;11.77;7.40;;;20.30;99.90;;;;;;5052755;28;20025;-88
2021/08/15 04:49:32;;;;;;;9.75;6.35;;;20.40;99.90;;;;;;5055844;28;20017;-88
2021/08/15 04:51:58;;;;;;;13.25;6.65;;;20.30;99.90;;;;;;5056774;28;20048;-89
2021/08/15 04:54:27;;;;;;;10.55;6.40;;;20.20;99.90;;;;;;5056686;28;20029;-88
2021/08/15 04:56:53;;;;;;;8.77;6.50;;;20.30;99.90;;;;;;5056132;28;20519;-89
2021/08/15 04:59:19;;;;;;;11.77;7.00;;;20.10;99.90;;;;;;5056685;28;20028;-88
2021/08/15 05:01:44;;;;;;;11.93;6.80;;;20.10;99.90;;;;;;5056223;28;20392;-89
2021/08/15 05:04:10;;;;;;;11.35;6.60;;;20.00;99.90;;;;;;5056663;28;20040;-89
2021/08/15 05:06:36;;;;;;;11.93;6.35;;;20.20;99.90;;;;;;5056560;28;20021;-88
2021/08/15 05:09:03;;;;;;;9.60;6.47;;;20.40;99.90;;;;;;5057420;28;20427;-87
2021/08/15 05:11:28;;;;;;;13.25;6.80;;;20.40;99.90;;;;;;5056229;28;20497;-90
2021/08/15 05:13:54;;;;;;;10.27;5.97;;;20.60;99.90;;;;;;5057546;28;20021;-88
2021/08/15 05:16:20;;;;;;;8.55;6.28;;;20.60;99.90;;;;;;5055950;28;20483;-88
2021/08/15 05:18:46;;;;;;;8.38;6.50;;;20.60;99.90;;;;;;5056291;28;20029;-88
2021/08/15 05:21:11;;;;;;;8.18;6.68;;;20.70;99.90;;;;;;5056249;28;20024;-88
2021/08/15 05:23:37;;;;;;;10.02;6.63;;;20.70;99.90;;;;;;5055893;28;20025;-88
2021/08/15 05:26:03;;;;;;;10.40;6.57;;;20.80;99.90;;;;;;5056463;28;20055;-88
2021/08/15 05:28:29;;;;;;;10.55;6.20;;;20.80;99.90;;;;;;5055701;28;20028;-88
2021/08/15 05:30:54;;;;;;;9.65;6.45;;;20.80;99.90;;;;;;5061144;28;20458;-88
2021/08/15 05:33:20;;;;;;;9.93;6.28;;;20.90;99.90;;;;;;5058439;28;20036;-89
2021/08/15 05:35:46;;;;;;;10.40;7.13;;;20.80;99.90;;;;;;5056824;28;20055;-88
2021/08/15 05:38:12;;;;;;;9.48;6.45;;;20.90;99.90;;;;;;5056198;28;20045;-88
2021/08/15 05:40:37;;;;;;;9.27;6.55;;;21.00;99.90;;;;;;5055527;28;20025;-88
2021/08/15 05:43:03;;;;;;;11.70;7.15;;;21.00;99.90;;;;;;5055737;28;20078;-88
2021/08/15 05:45:29;;;;;;;13.23;6.68;;;21.00;99.90;;;;;;5057344;28;20024;-88
2021/08/15 05:47:55;;;;;;;11.20;7.10;;;21.00;99.90;;;;;;5055587;28;20017;-88
2021/08/15 05:50:21;;;;;;;10.48;6.72;;;21.00;99.90;;;;;;5055216;28;20033;-89
2021/08/15 05:52:46;;;;;;;15.65;7.10;;;20.90;99.90;;;;;;5055438;28;20073;-88
2021/08/15 05:55:12;;;;;;;11.88;7.15;;;20.90;99.90;;;;;;5055421;28;20032;-88
2021/08/15 05:57:38;;;;;;;8.55;6.90;;;21.10;99.90;;;;;;5055148;28;20112;-88
2021/08/15 06:00:06;;;;;;;14.15;7.30;;;21.10;99.90;;;;;;5054241;28;20035;-88
2021/08/15 06:02:32;;;;;;;10.07;7.40;;;21.10;99.90;;;;;;5055352;28;20115;-89
2021/08/15 06:04:57;;;;;;;8.85;6.70;;;21.10;99.90;;;;;;5055031;28;20067;-88
2021/08/15 06:07:23;;;;;;;11.60;6.85;;;21.30;99.90;;;;;;5056140;28;20013;-88
2021/08/15 06:09:49;;;;;;;11.52;6.45;;;21.50;99.90;;;;;;5055679;28;20021;-89
2021/08/15 06:12:15;;;;;;;7.05;6.07;;;21.50;99.90;;;;;;5055518;28;20025;-89
2021/08/15 06:14:40;;;;;;;9.63;6.93;;;21.50;99.90;;;;;;5056324;28;20025;-89
2021/08/15 06:17:06;;;;;;;9.32;6.60;;;21.50;99.90;;;;;;5055259;28;20029;-88
2021/08/15 06:19:32;;;;;;;10.05;6.63;;;21.50;99.90;;;;;;5055341;28;20025;-89
2021/08/15 06:22:00;;;;;;;8.80;7.10;;;21.50;99.90;;;;;;5055178;28;20040;-88
2021/08/15 06:24:26;;;;;;;9.45;6.97;;;21.40;99.90;;;;;;5054709;28;20067;-88
2021/08/15 06:26:52;;;;;;;15.32;7.05;;;21.40;99.90;;;;;;5054855;28;20159;-89
2021/08/15 06:29:17;;;;;;;13.23;7.10;;;21.50;99.90;;;;;;5055017;28;20052;-89
2021/08/15 06:31:43;;;;;;;12.15;6.68;;;21.60;99.90;;;;;;5054719;28;20025;-89
2021/08/15 06:34:09;;;;;;;9.98;7.22;;;21.70;99.90;;;;;;5054571;28;20021;-89
2021/08/15 06:36:34;;;;;;;12.13;6.97;;;21.60;99.90;;;;;;5056213;28;20021;-89
2021/08/15 06:39:00;;;;;;;11.52;7.10;;;21.70;99.90;;;;;;5054540;28;20024;-89
2021/08/15 06:41:26;;;;;;;11.45;7.10;;;21.80;99.90;;;;;;5055894;28;20025;-89
2021/08/15 06:43:51;;;;;;;10.45;6.95;;;21.90;99.90;;;;;;5055907;28;20546;-89
2021/08/15 06:46:17;;;;;;;8.60;6.68;;;22.00;99.90;;;;;;5054705;28;20028;-88
2021/08/15 06:48:44;;;;;;;11.80;6.63;;;22.10;99.90;;;;;;5054572;28;20116;-89
2021/08/15 06:51:13;;;;;;;13.90;6.65;;;22.10;99.90;;;;;;5066201;28;20442;-89
2021/08/15 06:53:39;;;;;;;8.70;7.25;;;22.20;99.90;;;;;;5077717;28;20031;-89
2021/08/15 06:56:10;;;;;;;9.50;7.05;;;22.20;99.90;;;;;;5077287;28;20032;-89
2021/08/15 06:58:36;;;;;;;17.92;6.90;;;22.30;99.90;;;;;;5077027;28;20388;-89
2021/08/15 07:01:03;;;;;;;12.55;6.95;;;22.50;99.90;;;;;;5077237;28;20391;-88
2021/08/15 07:03:29;;;;;;;13.02;7.60;;;22.50;99.90;;;;;;5077546;28;20032;-88
2021/08/15 07:05:55;;;;;;;9.32;6.88;;;22.60;99.90;;;;;;5095211;28;20099;-88
2021/08/15 07:08:21;;;;;;;9.73;6.72;;;22.70;99.90;;;;;;5077819;28;20498;-89
2021/08/15 07:10:46;;;;;;;9.45;6.88;;;22.70;99.90;;;;;;5095571;28;20472;-89
2021/08/15 07:13:13;;;;;;;10.40;7.22;;;22.90;99.90;;;;;;5077457;28;20036;-88
2021/08/15 07:15:39;;;;;;;9.02;6.40;;;23.00;99.90;;;;;;5077091;28;20016;-88
2021/08/15 07:18:06;;;;;;;12.35;7.05;;;23.00;99.90;;;;;;5077954;28;20434;-89
2021/08/15 07:20:31;;;;;;;9.48;6.85;;;23.00;99.90;;;;;;5077450;28;20035;-89
2021/08/15 07:22:57;;;;;;;11.40;7.30;;;23.10;99.90;;;;;;5095809;28;20387;-89
2021/08/15 07:25:28;;;;;;;10.15;6.50;;;23.20;99.90;;;;;;5077459;28;20051;-89
2021/08/15 07:27:55;;;;;;;9.60;6.63;;;23.40;99.90;;;;;;5077989;28;20502;-89
2021/08/15 07:30:20;;;;;;;9.13;6.30;;;23.50;99.90;;;;;;5095823;28;20415;-89
2021/08/15 07:32:56;;;;;;;12.82;7.07;;;23.70;99.90;;;;;;5077003;28;20028;-88
2021/08/15 07:35:22;;;;;;;10.10;6.50;;;23.80;99.90;;;;;;5077202;28;20039;-89
2021/08/15 07:37:48;;;;;;;12.38;6.40;;;23.80;99.90;;;;;;5080620;28;20028;-89
2021/08/15 07:40:15;;;;;;;8.80;6.32;;;23.90;99.90;;;;;;5099696;28;20432;-89
2021/08/15 07:42:41;;;;;;;10.50;6.32;;;24.10;99.90;;;;;;5078569;28;20156;-89
2021/08/15 07:45:07;;;;;;;12.95;6.65;;;24.10;99.90;;;;;;5077533;28;20032;-89
2021/08/15 07:47:33;;;;;;;9.85;6.35;;;24.20;99.90;;;;;;5077068;28;20024;-89
2021/08/15 07:49:59;;;;;;;6.63;5.63;;;24.40;99.90;;;;;;5076729;28;20361;-89
2021/08/15 07:52:24;;;;;;;15.45;6.88;;;24.50;99.90;;;;;;5076252;28;20040;-89
2021/08/15 07:54:50;;;;;;;13.07;6.05;;;24.50;99.90;;;;;;5095193;28;20422;-89
2021/08/15 07:57:16;;;;;;;14.15;6.75;;;24.60;99.90;;;;;;5093904;28;20422;-89
2021/08/15 07:59:42;;;;;;;9.68;6.50;;;24.80;99.90;;;;;;5075549;28;20024;-89
2021/08/15 08:02:08;;;;;;;12.73;7.07;;;24.80;99.90;;;;;;5075513;28;20059;-89
2021/08/15 08:04:34;;;;;;;15.98;6.82;;;24.90;99.90;;;;;;5075470;28;20032;-89
2021/08/15 08:07:02;;;;;;;8.27;6.43;;;25.00;99.90;;;;;;5093727;28;20162;-89
2021/08/15 08:09:28;;;;;;;6.55;5.85;;;25.20;99.90;;;;;;5075521;28;20027;-89
2021/08/15 08:11:55;;;;;;;12.13;6.70;;;25.30;99.90;;;;;;5075773;28;20024;-89
2021/08/15 08:14:22;;;;;;;10.52;6.32;;;25.30;99.90;;;;;;5093523;28;20030;-89
2021/08/15 08:16:48;;;;;;;12.38;6.45;;;25.20;99.90;;;;;;5075569;28;20111;-89
2021/08/15 08:19:14;;;;;;;12.43;7.15;;;25.50;99.90;;;;;;5075318;28;20417;-89
2021/08/15 08:21:40;;;;;;;11.98;7.10;;;25.50;99.90;;;;;;5075299;28;20020;-90
2021/08/15 08:24:07;;;;;;;8.52;5.85;;;25.50;99.90;;;;;;5095598;28;20035;-89
2021/08/15 08:26:34;;;;;;;14.50;6.90;;;25.60;99.90;;;;;;5079594;28;20127;-89
2021/08/15 08:29:00;;;;;;;12.55;6.60;;;25.70;99.90;;;;;;5097609;28;20380;-90
2021/08/15 08:31:27;;;;;;;11.20;7.10;;;25.70;99.90;;;;;;5079786;28;20071;-90
2021/08/15 08:33:56;;;;;;;9.90;6.07;;;25.70;99.90;;;;;;5079636;28;20020;-89
2021/08/15 08:36:22;;;;;;;13.20;6.95;;;25.80;99.90;;;;;;5079168;28;20028;-89
2021/08/15 08:38:48;;;;;;;9.40;6.07;;;25.80;99.90;;;;;;5079292;28;20024;-90
2021/08/15 08:41:16;;;;;;;9.00;6.13;;;26.10;99.90;;;;;;5097379;28;20035;-89
2021/08/15 08:43:43;;;;;;;9.68;6.25;;;26.40;99.90;;;;;;5079001;28;20032;-90
2021/08/15 08:46:12;;;;;;;11.07;6.50;;;26.60;99.90;;;;;;5079108;28;20065;-89
2021/08/15 08:48:39;;;;;;;12.07;6.15;;;26.70;99.90;;;;;;5078960;28;20031;-89
2021/08/15 08:51:04;;;;;;;11.18;6.72;;;26.70;99.90;;;;;;5078776;28;20039;-89
2021/08/15 08:53:34;;;;;;;12.70;6.80;;;26.70;99.90;;;;;;5079121;28;20027;-89
2021/08/15 08:56:00;;;;;;;10.98;6.10;;;26.90;99.90;;;;;;5078797;28;20028;-89
2021/08/15 08:58:25;;;;;;;10.30;6.30;;;27.10;99.90;;;;;;5078712;28;20502;-89
2021/08/15 09:00:51;;;;;;;7.45;6.05;;;27.30;99.90;;;;;;5078747;28;20024;-89
2021/08/15 09:03:17;;;;;;;10.90;6.65;;;27.40;99.90;;;;;;5078705;28;20024;-90
2021/08/15 09:05:51;;;;;;;10.35;6.25;;;27.60;99.90;;;;;;5078666;28;20027;-89
2021/08/15 09:08:29;;;;;;;11.90;6.55;;;27.40;99.90;;;;;;5078710;28;20024;-90
2021/08/15 09:11:14;;;;;;;9.82;6.30;;;27.30;99.90;;;;;;5078662;28;20479;-89
2021/08/15 09:13:41;;;;;;;10.65;7.00;;;27.00;99.90;;;;;;5078567;28;20024;-89
2021/08/15 09:16:07;;;;;;;14.02;6.28;;;27.30;99.90;;;;;;5062326;28;20442;-89
2021/08/15 09:18:33;;;;;;;10.65;6.30;;;27.60;99.90;;;;;;5080045;28;20028;-90
2021/08/15 09:20:59;;;;;;;15.10;6.50;;;27.40;99.90;;;;;;5078468;28;20502;-89
2021/08/15 09:23:31;;;;;;;10.07;6.35;;;27.40;99.90;;;;;;5096479;28;20020;-89
2021/08/15 09:26:20;;;;;;;11.32;6.68;;;27.70;99.90;;;;;;5096564;28;20020;-89
2021/08/15 09:28:48;;;;;;;8.45;6.22;;;27.90;99.90;;;;;;5078331;28;20124;-89
2021/08/15 09:31:31;;;;;;;9.45;6.18;;;28.10;99.90;;;;;;5078496;28;20020;-90
2021/08/15 09:33:59;;;;;;;11.82;6.95;;;28.10;99.90;;;;;;5078083;28;20035;-89
2021/08/15 09:36:32;;;;;;;8.45;6.22;;;28.20;99.90;;;;;;5078767;28;20483;-89
2021/08/15 09:39:02;;;;;;;11.48;6.65;;;28.40;99.90;;;;;;5078734;28;20395;-89
2021/08/15 09:41:30;;;;;;;10.35;6.18;;;28.60;99.90;;;;;;5080245;28;20036;-90
2021/08/15 09:44:26;;;;;;;8.05;6.00;;;28.30;99.90;;;;;;5080186;28;20123;-90
2021/08/15 09:47:02;;;;;;;12.32;6.70;;;28.70;99.90;;;;;;5096314;28;20074;-89
2021/08/15 09:49:33;;;;;;;19.52;6.85;;;28.90;99.90;;;;;;5078001;28;20023;-90
2021/08/15 09:51:59;;;;;;;8.90;5.72;;;28.90;99.90;;;;;;5077737;28;20514;-89
2021/08/15 09:54:25;;;;;;;12.07;6.30;;;29.20;99.90;;;;;;5077774;28;20054;-89
2021/08/15 09:56:51;;;;;;;10.43;6.40;;;29.10;99.90;;;;;;5095873;28;20039;-89
2021/08/15 09:59:22;;;;;;;12.88;5.70;;;28.70;99.90;;;;;;5077687;28;20110;-88
2021/08/15 10:01:52;;;;;;;9.05;6.30;;;28.60;99.90;;;;;;5095828;28;20035;-89
2021/08/15 10:04:20;;;;;;;12.57;6.00;;;28.50;99.90;;;;;;5077625;28;20028;-89
2021/08/15 10:06:48;;;;;;;14.25;5.78;;;29.00;99.90;;;;;;5077611;28;20051;-89
2021/08/15 10:09:14;;;;;;;24.90;6.80;;;29.40;99.90;;;;;;5077620;28;20064;-89
2021/08/15 10:11:43;;;;;;;19.05;6.85;;;29.60;99.90;;;;;;5077460;28;20050;-88
2021/08/15 10:14:11;;;;;;;16.20;6.47;;;30.00;99.90;;;;;;5095521;28;20540;-89
2021/08/15 10:16:50;;;;;;;12.30;5.68;;;30.00;99.90;;;;;;5077407;28;20483;-89
2021/08/15 10:19:25;;;;;;;10.07;5.85;;;30.40;99.90;;;;;;5077406;28;20487;-90
2021/08/15 10:21:51;;;;;;;9.93;6.30;;;30.50;99.90;;;;;;5077352;28;20209;-89
2021/08/15 10:24:17;;;;;;;11.18;6.35;;;30.70;99.90;;;;;;5077228;28;20136;-89
2021/08/15 10:26:51;;;;;;;12.20;5.93;;;30.80;99.90;;;;;;5077260;28;20020;-89
2021/08/15 10:29:38;;;;;;;19.00;5.57;;;30.60;99.90;;;;;;5077137;28;20020;-90
2021/08/15 10:32:08;;;;;;;13.75;5.97;;;31.00;99.90;;;;;;5077087;28;20047;-89
2021/08/15 10:34:49;;;;;;;11.68;5.70;;;31.30;99.90;;;;;;5077043;28;20046;-89
2021/08/15 10:37:27;;;;;;;13.23;5.88;;;31.30;99.90;;;;;;5095083;28;20024;-90
2021/08/15 10:40:03;;;;;;;10.00;5.65;;;31.00;99.90;;;;;;5076881;28;20040;-89
2021/08/15 10:42:37;;;;;;;13.70;5.35;;;31.20;99.90;;;;;;5076984;28;20487;-89
2021/08/15 10:45:07;;;;;;;17.40;5.82;;;31.30;99.90;;;;;;5076880;28;20032;-89
2021/08/15 10:47:33;;;;;;;9.35;5.43;;;31.70;99.90;;;;;;5076333;28;20020;-90
2021/08/15 10:50:03;;;;;;;9.77;6.00;;;31.90;99.90;;;;;;5076841;28;20475;-90
2021/08/15 10:52:39;;;;;;;9.55;5.47;;;32.10;99.90;;;;;;5076528;28;20040;-90
2021/08/15 10:55:19;;;;;;;10.48;5.32;;;32.10;99.90;;;;;;5077610;28;20085;-90
2021/08/15 10:57:49;;;;;;;12.32;5.40;;;31.90;99.90;;;;;;5076644;28;20035;-90
2021/08/15 11:00:29;;;;;;;10.10;5.03;;;32.20;99.90;;;;;;5076627;28;20020;-89
2021/08/15 11:02:59;;;;;;;13.80;5.55;;;32.30;99.90;;;;;;5077135;28;20093;-90
2021/08/15 11:05:38;;;;;;;13.68;5.22;;;32.40;99.90;;;;;;5076507;28;20028;-88
2021/08/15 11:08:05;;;;;;;16.48;5.63;;;32.30;99.90;;;;;;5077914;28;20028;-89
2021/08/15 11:11:08;;;;;;;12.40;5.65;;;32.60;99.90;;;;;;5076411;28;20054;-90
2021/08/15 11:13:35;;;;;;;21.35;5.15;;;32.10;99.90;;;;;;5094493;28;20475;-89
2021/08/15 11:16:26;;;;;;;12.30;5.07;;;32.60;99.90;;;;;;5076217;28;20028;-89
2021/08/15 11:19:12;;;;;;;11.18;5.20;;;33.10;99.90;;;;;;5094324;28;20533;-89
2021/08/15 11:22:09;;;;;;;10.68;4.97;;;33.70;99.70;;;;;;5076034;28;20024;-89
2021/08/15 11:24:44;;;;;;;12.30;4.60;;;33.20;98.90;;;;;;5075981;28;20027;-88
2021/08/15 11:27:30;;;;;;;10.27;5.47;;;32.20;99.90;;;;;;5075986;28;20506;-89
2021/08/15 11:29:58;;;;;;;12.23;5.47;;;31.20;99.90;;;;;;5076054;28;20035;-87
2021/08/15 11:32:27;;;;;;;12.18;5.15;;;30.70;99.90;;;;;;5075916;28;20025;-88
2021/08/15 11:35:03;;;;;;;9.65;5.35;;;30.30;99.90;;;;;;5075722;28;20028;-88
2021/08/15 11:37:34;;;;;;;13.02;5.70;;;29.80;99.90;;;;;;5093742;28;20099;-88
2021/08/15 11:40:22;;;;;;;14.95;6.03;;;29.60;99.90;;;;;;5075710;28;20480;-88
2021/08/15 11:43:05;;;;;;;23.30;7.22;;;29.30;99.90;;;;;;5075715;28;20642;-88
2021/08/15 11:45:37;;;;;;;16.80;7.05;;;29.00;99.90;;;;;;5075781;28;20080;-88
2021/08/15 11:48:12;;;;;;;46.42;11.50;;;28.60;99.90;;;;;;5099202;28;20031;-88
2021/08/15 11:50:40;;;;;;;18.98;8.07;;;28.20;99.90;;;;;;5078895;28;20016;-88
2021/08/15 11:53:20;;;;;;;14.88;7.82;;;27.40;99.90;;;;;;5076264;28;20025;-89
2021/08/15 11:55:46;;;;;;;16.00;8.70;;;26.80;99.90;;;;;;5075972;28;20030;-90
2021/08/15 11:58:12;;;;;;;18.15;8.75;;;26.20;99.90;;;;;;5074988;28;20032;-89
2021/08/15 12:00:38;;;;;;;37.45;14.48;;;25.60;99.90;;;;;;5075864;28;20028;-91
2021/08/15 12:03:11;;;;;;;32.47;11.90;;;25.20;99.90;;;;;;5076203;28;20020;-93
2021/08/15 12:05:47;;;;;;;19.42;10.40;;;24.70;99.90;;;;;;5076264;28;20503;-92
2021/08/15 12:08:17;;;;;;;17.20;9.70;;;24.20;99.90;;;;;;5076057;28;20020;-91
2021/08/15 12:10:49;;;;;;;28.40;10.27;;;23.90;99.90;;;;;;5075966;28;20016;-91
2021/08/15 12:13:19;;;;;;;13.50;8.30;;;23.70;99.90;;;;;;5076238;28;20021;-91
2021/08/15 12:16:05;;;;;;;13.20;7.32;;;23.20;99.90;;;;;;5076206;28;20020;-92
2021/08/15 12:18:46;;;;;;;16.52;7.00;;;23.10;99.90;;;;;;5076343;28;20497;-92
2021/08/15 12:21:21;;;;;;;17.35;7.43;;;23.00;99.90;;;;;;5076519;28;20036;-92
2021/08/15 12:24:10;;;;;;;11.15;8.15;;;23.20;99.90;;;;;;5076147;28;20122;-93
2021/08/15 12:27:03;;;;;;;11.35;6.40;;;23.40;99.90;;;;;;5076305;28;20027;-92
2021/08/15 12:29:44;;;;;;;13.77;7.03;;;24.10;99.90;;;;;;5076269;28;20114;-91
2021/08/15 12:32:11;;;;;;;15.00;6.68;;;24.50;99.90;;;;;;5075923;28;20024;-92
2021/08/15 12:34:45;;;;;;;9.57;6.57;;;24.50;99.90;;;;;;5076505;28;20020;-92
2021/08/15 12:37:17;;;;;;;12.93;6.20;;;25.10;99.90;;;;;;5076392;28;20028;-93
2021/08/15 12:39:44;;;;;;;13.27;5.70;;;25.60;99.90;;;;;;5076114;28;20082;-92
2021/08/15 12:42:21;;;;;;;13.48;5.13;;;26.80;99.90;;;;;;5076554;28;20062;-92
2021/08/15 12:44:53;;;;;;;16.00;5.47;;;28.10;99.90;;;;;;5075761;28;20040;-92
2021/08/15 12:47:26;;;;;;;12.77;5.57;;;29.10;99.90;;;;;;5094011;28;20514;-93